createdAt,value
2018-11-05T00:00:16.799Z,12.70
2018-11-05T00:02:45.989Z,12.60
2018-11-05T00:05:15.093Z,12.60
2018-11-05T00:07:44.023Z,12.60
2018-11-05T00:10:13.339Z,12.50
2018-11-05T00:12:42.301Z,12.50
2018-11-05T00:15:11.263Z,12.50
2018-11-05T00:17:40.269Z,12.60
2018-11-05T00:20:10.133Z,12.50
2018-11-05T00:22:39.197Z,12.60
2018-11-05T00:25:10.332Z,12.60
2018-11-05T00:27:39.590Z,12.50
2018-11-05T00:30:10.076Z,12.50
2018-11-05T00:32:39.033Z,12.50
2018-11-05T00:35:08.598Z,12.50
2018-11-05T00:37:37.543Z,12.60
2018-11-05T00:40:09.600Z,12.60
2018-11-05T00:42:38.531Z,12.60
2018-11-05T00:45:08.506Z,12.60
2018-11-05T00:47:37.549Z,12.60
2018-11-05T00:50:09.356Z,12.50
2018-11-05T00:52:38.309Z,12.50
2018-11-05T00:55:07.815Z,12.50
2018-11-05T00:57:36.880Z,12.50
2018-11-05T01:00:08.786Z,12.50
2018-11-05T01:02:37.962Z,12.50
2018-11-05T01:05:08.300Z,12.40
2018-11-05T01:07:37.292Z,12.40
2018-11-05T01:10:07.214Z,12.40
2018-11-05T01:12:36.587Z,12.30
2018-11-05T01:15:07.630Z,12.30
2018-11-05T01:17:36.638Z,12.30
2018-11-05T01:20:06.486Z,12.30
2018-11-05T01:22:35.992Z,12.30
2018-11-05T01:25:05.035Z,12.40
2018-11-05T01:27:33.977Z,12.40
2018-11-05T01:30:03.251Z,12.40
2018-11-05T01:32:32.309Z,12.40
2018-11-05T01:35:01.269Z,12.30
2018-11-05T01:37:30.254Z,12.30
2018-11-05T01:39:59.206Z,12.30
2018-11-05T01:42:28.138Z,12.30
2018-11-05T01:44:57.148Z,12.30
2018-11-05T01:47:26.072Z,12.30
2018-11-05T01:49:55.003Z,12.30
2018-11-05T01:52:24.018Z,12.30
2018-11-05T01:54:52.985Z,12.30
2018-11-05T01:57:22.027Z,12.30
2018-11-05T01:59:51.146Z,12.20
2018-11-05T02:02:20.059Z,12.20
2018-11-05T02:04:49.065Z,12.20
2018-11-05T02:07:17.996Z,12.20
2018-11-05T02:09:46.877Z,12.30
2018-11-05T02:12:15.804Z,12.30
2018-11-05T02:14:44.692Z,12.20
2018-11-05T02:17:13.851Z,12.20
2018-11-05T02:19:43.645Z,12.20
2018-11-05T02:22:12.867Z,12.20
2018-11-05T02:24:41.819Z,12.20
2018-11-05T02:27:10.896Z,12.20
2018-11-05T02:29:39.912Z,12.20
2018-11-05T02:32:08.879Z,12.20
2018-11-05T02:34:37.901Z,12.20
2018-11-05T02:37:06.891Z,12.20
2018-11-05T02:39:35.824Z,12.10
2018-11-05T02:42:05.255Z,12.10
2018-11-05T02:44:34.181Z,12.10
2018-11-05T02:47:03.209Z,12.10
2018-11-05T02:49:32.177Z,12.10
2018-11-05T02:52:01.136Z,12.20
2018-11-05T02:54:30.453Z,12.20
2018-11-05T02:56:59.471Z,12.20
2018-11-05T02:59:28.426Z,12.20
2018-11-05T03:01:57.433Z,12.20
2018-11-05T03:04:26.399Z,12.20
2018-11-05T03:06:55.360Z,12.20
2018-11-05T03:09:24.272Z,12.20
2018-11-05T03:11:53.306Z,12.20
2018-11-05T03:14:22.242Z,12.20
2018-11-05T03:16:51.191Z,12.20
2018-11-05T03:19:20.118Z,12.20
2018-11-05T03:21:49.086Z,12.10
2018-11-05T03:24:18.038Z,12.10
2018-11-05T03:26:47.082Z,12.10
2018-11-05T03:29:16.026Z,12.10
2018-11-05T03:31:44.959Z,12.20
2018-11-05T03:34:13.886Z,12.20
2018-11-05T03:36:42.807Z,12.20
2018-11-05T03:39:12.435Z,12.10
2018-11-05T03:41:41.465Z,12.10
2018-11-05T03:44:10.739Z,12.10
2018-11-05T03:46:40.450Z,12.00
2018-11-05T03:49:10.265Z,12.00
2018-11-05T03:51:39.267Z,11.90
2018-11-05T03:54:08.645Z,11.90
2018-11-05T03:56:37.801Z,11.90
2018-11-05T03:59:06.823Z,11.90
2018-11-05T04:01:35.833Z,11.90
2018-11-05T04:04:04.971Z,11.90
2018-11-05T04:06:34.050Z,11.80
2018-11-05T04:09:04.967Z,11.80
2018-11-05T04:11:34.069Z,11.80
2018-11-05T04:14:03.164Z,11.80
2018-11-05T04:16:32.137Z,11.80
2018-11-05T04:19:01.153Z,11.80
2018-11-05T04:21:45.095Z,11.90
2018-11-05T04:24:15.086Z,11.90
2018-11-05T04:26:45.116Z,11.80
2018-11-05T04:29:14.283Z,11.70
2018-11-05T04:31:43.273Z,11.70
2018-11-05T04:34:12.253Z,11.60
2018-11-05T04:36:41.306Z,11.60
2018-11-05T04:39:14.654Z,11.60
2018-11-05T04:41:44.314Z,11.60
2018-11-05T04:44:13.367Z,11.60
2018-11-05T04:46:42.333Z,11.50
2018-11-05T04:49:11.290Z,11.50
2018-11-05T04:51:40.576Z,11.50
2018-11-05T04:54:09.554Z,11.50
2018-11-05T04:56:38.542Z,11.50
2018-11-05T04:59:07.679Z,11.50
2018-11-05T05:01:37.033Z,11.50
2018-11-05T05:04:06.320Z,11.50
2018-11-05T05:06:35.256Z,11.50
2018-11-05T05:09:06.286Z,11.50
2018-11-05T05:11:35.202Z,11.50
2018-11-05T05:14:04.167Z,11.50
2018-11-05T05:16:33.223Z,11.50
2018-11-05T05:19:02.322Z,11.50
2018-11-05T05:21:31.286Z,11.40
2018-11-05T05:24:00.538Z,11.50
2018-11-05T05:26:29.515Z,11.50
2018-11-05T05:28:58.564Z,11.50
2018-11-05T05:31:27.558Z,11.50
2018-11-05T05:33:56.520Z,11.50
2018-11-05T05:36:25.657Z,11.50
2018-11-05T05:38:54.608Z,11.50
2018-11-05T05:41:23.665Z,11.50
2018-11-05T05:43:52.855Z,11.50
2018-11-05T05:46:21.854Z,11.40
2018-11-05T05:48:50.802Z,11.40
2018-11-05T05:51:19.792Z,11.40
2018-11-05T05:53:48.770Z,11.40
2018-11-05T05:56:18.068Z,11.40
2018-11-05T05:58:47.021Z,11.50
2018-11-05T06:01:16.226Z,11.50
2018-11-05T06:03:45.631Z,11.50
2018-11-05T06:06:14.877Z,11.50
2018-11-05T06:08:43.883Z,11.50
2018-11-05T06:11:12.839Z,11.50
2018-11-05T06:13:41.766Z,11.50
2018-11-05T06:16:10.707Z,11.60
2018-11-05T06:18:39.626Z,11.60
2018-11-05T06:21:08.582Z,11.60
2018-11-05T06:23:37.550Z,11.60
2018-11-05T06:26:06.748Z,11.50
2018-11-05T06:28:35.765Z,11.50
2018-11-05T06:31:05.681Z,11.40
2018-11-05T06:33:34.676Z,11.40
2018-11-05T06:36:03.982Z,11.40
2018-11-05T06:38:32.891Z,11.40
2018-11-05T06:41:03.794Z,11.40
2018-11-05T06:43:32.892Z,11.30
2018-11-05T06:46:01.889Z,11.30
2018-11-05T06:48:30.817Z,11.30
2018-11-05T06:50:59.915Z,11.30
2018-11-05T06:53:29.076Z,11.30
2018-11-05T06:55:58.040Z,11.30
2018-11-05T06:58:27.028Z,11.30
2018-11-05T07:00:55.995Z,11.30
2018-11-05T07:03:24.889Z,11.30
2018-11-05T07:05:54.034Z,11.30
2018-11-05T07:08:23.061Z,11.40
2018-11-05T07:10:52.018Z,11.50
2018-11-05T07:13:20.954Z,11.50
2018-11-05T07:15:49.885Z,11.60
2018-11-05T07:18:18.842Z,11.60
2018-11-05T07:20:48.003Z,11.50
2018-11-05T07:23:16.947Z,11.70
2018-11-05T07:25:46.087Z,11.70
2018-11-05T07:28:15.044Z,11.60
2018-11-05T07:30:44.076Z,11.60
2018-11-05T07:33:13.090Z,11.60
2018-11-05T07:35:42.239Z,11.60
2018-11-05T07:38:11.373Z,11.60
2018-11-05T07:40:40.299Z,11.60
2018-11-05T07:43:09.227Z,11.60
2018-11-05T07:45:38.653Z,11.70
2018-11-05T07:48:07.631Z,11.70
2018-11-05T07:50:36.584Z,11.80
2018-11-05T07:53:06.035Z,11.80
2018-11-05T07:55:34.990Z,11.80
2018-11-05T07:58:03.993Z,11.70
2018-11-05T08:00:38.342Z,11.70
2018-11-05T08:03:07.273Z,11.70
2018-11-05T08:05:36.217Z,11.70
2018-11-05T08:08:05.917Z,11.70
2018-11-05T08:10:35.036Z,11.70
2018-11-05T08:13:04.439Z,11.70
2018-11-05T08:15:33.379Z,11.80
2018-11-05T08:18:07.335Z,11.90
2018-11-05T08:20:36.371Z,12.00
2018-11-05T08:23:05.479Z,12.00
2018-11-05T08:25:34.515Z,12.00
2018-11-05T08:28:03.701Z,12.00
2018-11-05T08:30:33.025Z,12.00
2018-11-05T08:33:01.983Z,12.10
2018-11-05T08:35:31.205Z,12.20
2018-11-05T08:38:00.192Z,12.20
2018-11-05T08:40:29.635Z,12.20
2018-11-05T08:42:58.657Z,12.30
2018-11-05T08:45:29.547Z,12.30
2018-11-05T08:47:58.583Z,12.30
2018-11-05T08:50:27.596Z,12.30
2018-11-05T08:52:56.701Z,12.40
2018-11-05T08:55:26.685Z,12.40
2018-11-05T08:57:55.627Z,12.50
2018-11-05T09:00:30.151Z,12.50
2018-11-05T09:02:59.413Z,12.50
2018-11-05T09:05:28.365Z,12.50
2018-11-05T09:07:57.531Z,12.50
2018-11-05T09:10:26.820Z,12.50
2018-11-05T09:12:55.814Z,12.60
2018-11-05T09:15:25.089Z,12.60
2018-11-05T09:17:54.198Z,12.50
2018-11-05T09:20:23.148Z,12.50
2018-11-05T09:22:52.642Z,12.60
2018-11-05T09:25:21.594Z,12.70
2018-11-05T09:27:50.638Z,12.70
2018-11-05T09:30:21.085Z,12.80
2018-11-05T09:32:50.387Z,12.90
2018-11-05T09:35:19.470Z,13.00
2018-11-05T09:37:48.404Z,13.10
2018-11-05T09:40:19.577Z,13.20
2018-11-05T09:42:48.901Z,13.30
2018-11-05T09:45:33.258Z,13.40
2018-11-05T09:48:02.559Z,13.60
2018-11-05T09:50:31.691Z,13.60
2018-11-05T09:53:00.803Z,13.80
2018-11-05T09:55:29.916Z,13.90
2018-11-05T09:57:58.865Z,13.90
2018-11-05T10:00:28.357Z,13.80
2018-11-05T10:03:06.650Z,13.90
2018-11-05T10:05:35.544Z,13.80
2018-11-05T10:08:04.993Z,13.50
2018-11-05T10:10:33.935Z,13.30
2018-11-05T10:13:02.857Z,13.10
2018-11-05T10:15:31.789Z,13.00
2018-11-05T10:18:00.846Z,13.00
2018-11-05T10:20:29.790Z,12.90
2018-11-05T10:22:58.716Z,12.80
2018-11-05T10:25:27.653Z,12.80
2018-11-05T10:28:01.987Z,12.80
2018-11-05T10:30:31.055Z,12.80
2018-11-05T10:33:00.226Z,12.80
2018-11-05T10:35:34.785Z,12.80
2018-11-05T10:38:04.105Z,12.80
2018-11-05T10:40:33.125Z,12.80
2018-11-05T10:43:02.235Z,12.90
2018-11-05T10:45:31.156Z,13.00
2018-11-05T10:48:00.253Z,13.10
2018-11-05T10:50:29.473Z,13.30
2018-11-05T10:52:58.455Z,13.50
2018-11-05T10:55:27.879Z,13.60
2018-11-05T10:57:56.858Z,13.80
2018-11-05T11:00:31.259Z,13.80
2018-11-05T11:03:05.569Z,13.90
2018-11-05T11:05:34.688Z,13.80
2018-11-05T11:08:03.684Z,13.80
2018-11-05T11:10:33.363Z,13.80
2018-11-05T11:13:02.358Z,13.90
2018-11-05T11:15:31.350Z,14.00
2018-11-05T11:18:00.437Z,14.10
2018-11-05T11:20:29.671Z,14.10
2018-11-05T11:22:58.697Z,14.20
2018-11-05T11:25:27.656Z,14.40
2018-11-05T11:27:56.650Z,14.50
2018-11-05T11:30:25.802Z,14.50
2018-11-05T11:32:54.745Z,14.60
2018-11-05T11:35:23.725Z,14.70
2018-11-05T11:37:52.754Z,14.80
2018-11-05T11:40:23.446Z,14.80
2018-11-05T11:42:52.566Z,14.90
2018-11-05T11:45:22.677Z,14.90
2018-11-05T11:47:51.688Z,15.00
2018-11-05T11:50:21.153Z,15.00
2018-11-05T11:52:50.568Z,15.10
2018-11-05T11:55:21.257Z,15.20
2018-11-05T11:57:50.835Z,15.30
2018-11-05T12:00:22.059Z,15.40
2018-11-05T12:02:51.496Z,15.60
2018-11-05T12:05:20.999Z,15.80
2018-11-05T12:07:50.064Z,15.90
2018-11-05T12:10:23.974Z,16.00
2018-11-05T12:12:52.926Z,16.00
2018-11-05T12:15:22.560Z,16.10
2018-11-05T12:17:52.860Z,16.10
2018-11-05T12:20:23.976Z,16.10
2018-11-05T12:22:54.006Z,16.20
2018-11-05T12:25:23.127Z,16.30
2018-11-05T12:27:52.060Z,16.30
2018-11-05T12:30:23.089Z,16.40
2018-11-05T12:32:53.191Z,16.40
2018-11-05T12:35:22.487Z,16.40
2018-11-05T12:37:52.391Z,16.40
2018-11-05T12:40:22.667Z,16.50
2018-11-05T12:42:52.140Z,16.50
2018-11-05T12:45:21.519Z,16.60
2018-11-05T12:47:50.433Z,16.70
2018-11-05T12:50:20.765Z,16.80
2018-11-05T12:52:50.911Z,16.80
2018-11-05T12:55:19.873Z,16.80
2018-11-05T12:57:49.601Z,16.80
2018-11-05T13:00:24.417Z,16.80
2018-11-05T13:02:54.529Z,16.80
2018-11-05T13:05:24.657Z,16.80
2018-11-05T13:07:54.055Z,16.80
2018-11-05T13:10:23.196Z,16.80
2018-11-05T13:12:52.237Z,16.70
2018-11-05T13:15:21.445Z,16.70
2018-11-05T13:17:50.582Z,16.60
2018-11-05T13:20:21.623Z,16.60
2018-11-05T13:22:50.756Z,16.60
2018-11-05T13:25:19.859Z,16.60
2018-11-05T13:27:49.809Z,16.60
2018-11-05T13:30:18.966Z,16.70
2018-11-05T13:32:47.957Z,16.70
2018-11-05T13:35:18.166Z,16.80
2018-11-05T13:37:47.564Z,16.80
2018-11-05T13:40:17.769Z,16.80
2018-11-05T13:42:47.248Z,16.80
2018-11-05T13:45:16.960Z,16.70
2018-11-05T13:47:47.158Z,16.70
2018-11-05T13:50:16.466Z,16.60
2018-11-05T13:52:45.363Z,16.50
2018-11-05T13:55:15.444Z,16.50
2018-11-05T13:57:45.633Z,16.40
2018-11-05T14:00:15.967Z,16.40
2018-11-05T14:02:45.017Z,16.30
2018-11-05T14:05:14.632Z,16.30
2018-11-05T14:07:43.606Z,16.20
2018-11-05T14:10:15.622Z,16.20
2018-11-05T14:12:45.395Z,16.20
2018-11-05T14:15:14.456Z,16.10
2018-11-05T14:17:43.922Z,16.10
2018-11-05T14:20:14.195Z,16.00
2018-11-05T14:22:43.618Z,16.00
2018-11-05T14:25:18.583Z,16.00
2018-11-05T14:27:49.593Z,16.00
2018-11-05T14:30:18.536Z,16.00
2018-11-05T14:32:48.481Z,15.90
2018-11-05T14:35:17.758Z,15.90
2018-11-05T14:37:47.183Z,15.80
2018-11-05T14:40:17.381Z,15.80
2018-11-05T14:42:46.577Z,15.80
2018-11-05T14:45:17.843Z,15.70
2018-11-05T14:47:47.098Z,15.70
2018-11-05T14:50:18.141Z,15.60
2018-11-05T14:52:47.107Z,15.60
2018-11-05T14:55:17.324Z,15.50
2018-11-05T14:57:47.598Z,15.50
2018-11-05T15:00:20.642Z,15.50
2018-11-05T15:02:50.426Z,15.50
2018-11-05T15:05:19.777Z,15.40
2018-11-05T15:07:49.623Z,15.30
2018-11-05T15:10:20.089Z,15.30
2018-11-05T15:12:49.296Z,15.20
2018-11-05T15:15:18.812Z,15.10
2018-11-05T15:17:48.160Z,15.00
2018-11-05T15:20:22.344Z,15.00
2018-11-05T15:22:51.452Z,14.90
2018-11-05T15:25:21.111Z,14.80
2018-11-05T15:27:50.612Z,14.80
2018-11-05T15:30:21.298Z,14.70
2018-11-05T15:32:50.351Z,14.60
2018-11-05T15:35:19.509Z,14.60
2018-11-05T15:37:48.880Z,14.50
2018-11-05T15:40:19.506Z,14.50
2018-11-05T15:42:48.575Z,14.40
2018-11-05T15:45:18.790Z,14.40
2018-11-05T15:47:48.502Z,14.30
2018-11-05T15:50:18.600Z,14.30
2018-11-05T15:52:48.246Z,14.30
2018-11-05T15:55:16.953Z,14.20
2018-11-05T15:57:45.894Z,14.20
2018-11-05T16:00:17.405Z,14.10
2018-11-05T16:02:49.261Z,14.10
2018-11-05T16:05:18.420Z,14.10
2018-11-05T16:07:47.700Z,14.00
2018-11-05T16:10:17.033Z,14.00
2018-11-05T16:12:46.162Z,14.00
2018-11-05T16:15:15.151Z,14.00
2018-11-05T16:17:44.395Z,14.00
2018-11-05T16:20:17.283Z,14.00
2018-11-05T16:22:46.897Z,13.90
2018-11-05T16:25:16.151Z,13.90
2018-11-05T16:27:45.290Z,14.00
2018-11-05T16:30:15.820Z,13.90
2018-11-05T16:32:45.206Z,13.90
2018-11-05T16:35:14.205Z,13.90
2018-11-05T16:37:43.495Z,13.90
2018-11-05T16:40:14.932Z,13.90
2018-11-05T16:42:44.678Z,13.80
2018-11-05T16:45:14.018Z,13.80
2018-11-05T16:47:43.327Z,13.80
2018-11-05T16:50:28.647Z,13.70
2018-11-05T16:52:57.965Z,13.70
2018-11-05T16:55:26.893Z,13.70
2018-11-05T16:57:55.967Z,13.70
2018-11-05T17:00:25.090Z,13.70
2018-11-05T17:02:54.137Z,13.60
2018-11-05T17:05:23.374Z,13.60
2018-11-05T17:07:52.505Z,13.50
2018-11-05T17:10:21.469Z,13.50
2018-11-05T17:12:50.441Z,13.40
2018-11-05T17:15:19.458Z,13.40
2018-11-05T17:17:48.439Z,13.40
2018-11-05T17:20:18.731Z,13.40
2018-11-05T17:22:47.886Z,13.40
2018-11-05T17:25:17.151Z,13.30
2018-11-05T17:27:47.042Z,13.30
2018-11-05T17:30:18.368Z,13.30
2018-11-05T17:32:47.420Z,13.30
2018-11-05T17:35:16.647Z,13.30
2018-11-05T17:37:46.146Z,13.30
2018-11-05T17:40:16.566Z,13.30
2018-11-05T17:42:45.661Z,13.30
2018-11-05T17:45:16.226Z,13.30
2018-11-05T17:47:45.280Z,13.30
2018-11-05T17:50:18.883Z,13.20
2018-11-05T17:52:47.879Z,13.20
2018-11-05T17:55:17.194Z,13.20
2018-11-05T17:57:47.400Z,13.20
2018-11-05T18:00:17.957Z,13.20
2018-11-05T18:02:47.264Z,13.20
2018-11-05T18:05:16.344Z,13.20
2018-11-05T18:07:45.566Z,13.20
2018-11-05T18:10:14.538Z,13.20
2018-11-05T18:12:43.523Z,13.20
2018-11-05T18:15:12.956Z,13.10
2018-11-05T18:17:42.646Z,13.10
2018-11-05T18:20:13.073Z,13.10
2018-11-05T18:22:42.151Z,13.00
2018-11-05T18:25:13.011Z,13.00
2018-11-05T18:27:42.349Z,12.90
2018-11-05T18:30:12.521Z,12.80
2018-11-05T18:32:41.575Z,12.80
2018-11-05T18:35:11.948Z,12.80
2018-11-05T18:37:41.425Z,12.80
2018-11-05T18:40:12.824Z,12.70
2018-11-05T18:42:42.682Z,12.70
2018-11-05T18:45:12.666Z,12.70
2018-11-05T18:47:42.486Z,12.70
2018-11-05T18:50:13.184Z,12.70
2018-11-05T18:52:43.051Z,12.60
2018-11-05T18:55:13.878Z,12.60
2018-11-05T18:57:43.063Z,12.50
2018-11-05T19:00:16.905Z,12.50
2018-11-05T19:02:46.407Z,12.50
2018-11-05T19:05:15.948Z,12.50
2018-11-05T19:07:45.019Z,12.40
2018-11-05T19:10:14.447Z,12.40
2018-11-05T19:12:43.427Z,12.40
2018-11-05T19:15:13.940Z,12.40
2018-11-05T19:17:44.633Z,12.40
2018-11-05T19:20:14.011Z,12.30
2018-11-05T19:22:43.956Z,12.30
2018-11-05T19:25:14.105Z,12.20
2018-11-05T19:27:43.513Z,12.20
2018-11-05T19:30:15.005Z,12.20
2018-11-05T19:32:44.517Z,12.10
2018-11-05T19:35:13.582Z,12.10
2018-11-05T19:37:43.236Z,12.00
2018-11-05T19:40:13.223Z,12.00
2018-11-05T19:42:43.262Z,12.00
2018-11-05T19:45:14.090Z,11.90
2018-11-05T19:47:43.421Z,11.90
2018-11-05T19:50:15.032Z,11.80
2018-11-05T19:52:44.902Z,11.80
2018-11-05T19:55:14.868Z,11.80
2018-11-05T19:57:44.761Z,11.80
2018-11-05T20:00:20.850Z,11.70
2018-11-05T20:02:50.674Z,11.70
2018-11-05T20:05:20.104Z,11.70
2018-11-05T20:07:50.772Z,11.70
2018-11-05T20:10:20.282Z,11.70
2018-11-05T20:12:49.741Z,11.70
2018-11-05T20:15:19.091Z,11.60
2018-11-05T20:17:49.664Z,11.60
2018-11-05T20:20:20.065Z,11.60
2018-11-05T20:22:49.022Z,11.60
2018-11-05T20:25:18.524Z,11.60
2018-11-05T20:27:47.686Z,11.60
2018-11-05T20:30:18.993Z,11.50
2018-11-05T20:32:49.220Z,11.50
2018-11-05T20:35:18.265Z,11.50
2018-11-05T20:37:47.507Z,11.40
2018-11-05T20:40:18.427Z,11.40
2018-11-05T20:42:49.251Z,11.40
2018-11-05T20:45:18.898Z,11.40
2018-11-05T20:47:47.971Z,11.30
2018-11-05T20:50:17.546Z,11.30
2018-11-05T20:52:46.521Z,11.30
2018-11-05T20:55:16.499Z,11.30
2018-11-05T20:57:45.610Z,11.30
2018-11-05T21:00:16.244Z,11.30
2018-11-05T21:02:45.157Z,11.30
2018-11-05T21:05:14.126Z,11.20
2018-11-05T21:07:43.645Z,11.20
2018-11-05T21:10:13.535Z,11.20
2018-11-05T21:12:43.055Z,11.20
2018-11-05T21:15:16.558Z,11.10
2018-11-05T21:17:46.811Z,11.10
2018-11-05T21:20:16.362Z,11.00
2018-11-05T21:22:45.853Z,11.00
2018-11-05T21:25:14.836Z,11.00
2018-11-05T21:27:44.234Z,10.90
2018-11-05T21:30:16.332Z,10.90
2018-11-05T21:32:45.360Z,10.90
2018-11-05T21:35:16.058Z,10.80
2018-11-05T21:37:44.994Z,10.80
2018-11-05T21:40:15.386Z,10.80
2018-11-05T21:42:44.378Z,10.70
2018-11-05T21:45:14.274Z,10.60
2018-11-05T21:47:44.233Z,10.60
2018-11-05T21:50:14.946Z,10.60
2018-11-05T21:52:44.742Z,10.50
2018-11-05T21:55:14.989Z,10.50
2018-11-05T21:57:45.318Z,10.50
2018-11-05T22:00:17.006Z,10.50
2018-11-05T22:02:51.226Z,10.40
2018-11-05T22:05:20.522Z,10.40
2018-11-05T22:07:49.767Z,10.30
2018-11-05T22:10:18.762Z,10.30
2018-11-05T22:12:48.357Z,10.30
2018-11-05T22:15:17.468Z,10.30
2018-11-05T22:17:46.442Z,10.20
2018-11-05T22:20:15.397Z,10.20
2018-11-05T22:22:44.591Z,10.10
2018-11-05T22:25:13.686Z,10.10
2018-11-05T22:27:42.735Z,10.10
2018-11-05T22:30:12.643Z,10.10
2018-11-05T22:32:41.593Z,10.10
2018-11-05T22:35:10.523Z,10.00
2018-11-05T22:37:39.472Z,10.00
2018-11-05T22:40:10.867Z,10.00
2018-11-05T22:42:39.812Z,10.00
2018-11-05T22:45:10.388Z,10.00
2018-11-05T22:47:39.459Z,10.00
2018-11-05T22:50:09.015Z,9.90
2018-11-05T22:52:39.270Z,10.00
2018-11-05T22:55:08.492Z,9.90
2018-11-05T22:57:37.843Z,9.90
2018-11-05T23:00:14.745Z,9.80
2018-11-05T23:02:49.086Z,9.80
2018-11-05T23:05:19.188Z,9.80
2018-11-05T23:07:48.427Z,9.70
2018-11-05T23:10:17.421Z,9.70
2018-11-05T23:12:46.411Z,9.70
2018-11-05T23:15:15.372Z,9.70
2018-11-05T23:17:44.490Z,9.70
2018-11-05T23:20:13.475Z,9.60
2018-11-05T23:22:43.077Z,9.60
2018-11-05T23:25:13.315Z,9.60
2018-11-05T23:27:42.425Z,9.60
2018-11-05T23:30:13.037Z,9.60
2018-11-05T23:32:42.164Z,9.60
2018-11-05T23:35:11.841Z,9.50
2018-11-05T23:37:41.472Z,9.50
2018-11-05T23:40:10.442Z,9.50
2018-11-05T23:42:40.055Z,9.50
2018-11-05T23:45:11.808Z,9.50
2018-11-05T23:47:40.830Z,9.40
2018-11-05T23:50:10.323Z,9.40
2018-11-05T23:52:39.346Z,9.40
2018-11-05T23:55:09.322Z,9.40
2018-11-05T23:57:38.433Z,9.40
